sensor_id;sensor_type;location;lat;lon;timestamp;pressure;altitude;pressure_sealevel;temperature;humidity
13011;BME280;6786;57.632;11.962;2023-07-08T00:00:27;101526.00;;;20.66;64.67
13011;BME280;6786;57.632;11.962;2023-07-08T00:02:55;101531.38;;;20.66;64.50
13011;BME280;6786;57.632;11.962;2023-07-08T00:05:25;101530.50;;;20.65;64.70
13011;BME280;6786;57.632;11.962;2023-07-08T00:07:53;101528.69;;;20.66;64.73
13011;BME280;6786;57.632;11.962;2023-07-08T00:10:25;101529.66;;;20.65;64.57
13011;BME280;6786;57.632;11.962;2023-07-08T00:12:57;101525.13;;;20.65;64.60
13011;BME280;6786;57.632;11.962;2023-07-08T00:15:27;101524.41;;;20.63;64.69
13011;BME280;6786;57.632;11.962;2023-07-08T00:17:55;101534.19;;;20.64;64.62
13011;BME280;6786;57.632;11.962;2023-07-08T00:20:30;101535.88;;;20.65;64.67
13011;BME280;6786;57.632;11.962;2023-07-08T00:22:59;101536.13;;;20.62;64.60
13011;BME280;6786;57.632;11.962;2023-07-08T00:25:30;101543.22;;;20.63;64.65
13011;BME280;6786;57.632;11.962;2023-07-08T00:27:59;101534.19;;;20.64;64.60
13011;BME280;6786;57.632;11.962;2023-07-08T00:30:29;101541.25;;;20.65;64.53
13011;BME280;6786;57.632;11.962;2023-07-08T00:32:58;101534.19;;;20.64;64.80
13011;BME280;6786;57.632;11.962;2023-07-08T00:35:32;101532.22;;;20.66;64.60
13011;BME280;6786;57.632;11.962;2023-07-08T00:38:01;101539.28;;;20.67;64.70
13011;BME280;6786;57.632;11.962;2023-07-08T00:40:33;101534.91;;;20.66;64.40
13011;BME280;6786;57.632;11.962;2023-07-08T00:43:03;101537.59;;;20.66;64.69
13011;BME280;6786;57.632;11.962;2023-07-08T00:45:38;101532.22;;;20.66;64.50
13011;BME280;6786;57.632;11.962;2023-07-08T00:48:28;101532.22;;;20.66;64.50
13011;BME280;6786;57.632;11.962;2023-07-08T00:50:56;101528.69;;;20.66;64.58
13011;BME280;6786;57.632;11.962;2023-07-08T00:53:27;101528.56;;;20.67;64.60
13011;BME280;6786;57.632;11.962;2023-07-08T00:55:59;101533.91;;;20.67;64.41
13011;BME280;6786;57.632;11.962;2023-07-08T00:58:31;101530.25;;;20.68;64.44
13011;BME280;6786;57.632;11.962;2023-07-08T01:01:05;101530.25;;;20.68;64.59
13011;BME280;6786;57.632;11.962;2023-07-08T01:03:38;101534.78;;;20.68;64.46
13011;BME280;6786;57.632;11.962;2023-07-08T01:06:08;101528.56;;;20.67;64.58
13011;BME280;6786;57.632;11.962;2023-07-08T01:08:36;101541.00;;;20.68;64.47
13011;BME280;6786;57.632;11.962;2023-07-08T01:11:06;101526.97;;;20.65;64.38
13011;BME280;6786;57.632;11.962;2023-07-08T01:13:37;101526.59;;;20.69;64.61
13011;BME280;6786;57.632;11.962;2023-07-08T01:16:08;101537.34;;;20.69;64.60
13011;BME280;6786;57.632;11.962;2023-07-08T01:18:36;101523.19;;;20.67;64.28
13011;BME280;6786;57.632;11.962;2023-07-08T01:21:28;101536.34;;;20.70;64.25
13011;BME280;6786;57.632;11.962;2023-07-08T01:23:59;101527.44;;;20.70;64.38
13011;BME280;6786;57.632;11.962;2023-07-08T01:26:29;101530.75;;;20.62;64.30
13011;BME280;6786;57.632;11.962;2023-07-08T01:28:59;101535.63;;;20.68;64.37
13011;BME280;6786;57.632;11.962;2023-07-08T01:31:28;101498.06;;;20.46;64.54
13011;BME280;6786;57.632;11.962;2023-07-08T01:33:56;101536.59;;;20.67;64.35
13011;BME280;6786;57.632;11.962;2023-07-08T01:36:25;101539.28;;;20.67;64.55
13011;BME280;6786;57.632;11.962;2023-07-08T01:38:54;101530.38;;;20.67;64.23
13011;BME280;6786;57.632;11.962;2023-07-08T01:41:23;101532.22;;;20.66;64.57
13011;BME280;6786;57.632;11.962;2023-07-08T01:43:51;101530.50;;;20.65;64.40
13011;BME280;6786;57.632;11.962;2023-07-08T01:46:22;101529.66;;;20.65;64.44
13011;BME280;6786;57.632;11.962;2023-07-08T01:48:54;101538.44;;;20.67;64.40
13011;BME280;6786;57.632;11.962;2023-07-08T01:51:25;101533.91;;;20.67;64.55
13011;BME280;6786;57.632;11.962;2023-07-08T01:53:55;101535.63;;;20.68;64.37
13011;BME280;6786;57.632;11.962;2023-07-08T01:56:25;101535.63;;;20.68;64.24
13011;BME280;6786;57.632;11.962;2023-07-08T01:58:53;101535.63;;;20.68;64.55
13011;BME280;6786;57.632;11.962;2023-07-08T02:01:21;101533.91;;;20.67;64.27
13011;BME280;6786;57.632;11.962;2023-07-08T02:03:49;101534.78;;;20.68;64.35
13011;BME280;6786;57.632;11.962;2023-07-08T02:06:17;101527.56;;;20.68;64.25
13011;BME280;6786;57.632;11.962;2023-07-08T02:08:46;101528.56;;;20.67;64.50
13011;BME280;6786;57.632;11.962;2023-07-08T02:11:14;101530.50;;;20.65;64.49
13011;BME280;6786;57.632;11.962;2023-07-08T02:13:43;101534.78;;;20.68;64.30
13011;BME280;6786;57.632;11.962;2023-07-08T02:16:12;101529.41;;;20.68;64.47
13011;BME280;6786;57.632;11.962;2023-07-08T02:18:40;101532.94;;;20.68;64.33
13011;BME280;6786;57.632;11.962;2023-07-08T02:21:09;101535.63;;;20.68;64.29
13011;BME280;6786;57.632;11.962;2023-07-08T02:23:39;101534.66;;;20.69;64.18
13011;BME280;6786;57.632;11.962;2023-07-08T02:26:07;101531.97;;;20.69;64.12
13011;BME280;6786;57.632;11.962;2023-07-08T02:28:35;101530.25;;;20.68;64.43
13011;BME280;6786;57.632;11.962;2023-07-08T02:31:05;101534.66;;;20.69;64.26
13011;BME280;6786;57.632;11.962;2023-07-08T02:33:33;101530.25;;;20.68;64.47
13011;BME280;6786;57.632;11.962;2023-07-08T02:36:01;101528.56;;;20.67;64.46
13011;BME280;6786;57.632;11.962;2023-07-08T02:38:29;101532.22;;;20.66;64.26
13011;BME280;6786;57.632;11.962;2023-07-08T02:40:57;101479.41;;;20.45;64.17
13011;BME280;6786;57.632;11.962;2023-07-08T02:43:26;101523.91;;;20.69;64.39
13011;BME280;6786;57.632;11.962;2023-07-08T02:45:54;101524.88;;;20.68;64.17
13011;BME280;6786;57.632;11.962;2023-07-08T02:48:24;101524.03;;;20.68;64.05
13011;BME280;6786;57.632;11.962;2023-07-08T02:50:58;101532.94;;;20.68;64.14
13011;BME280;6786;57.632;11.962;2023-07-08T02:53:27;101520.50;;;20.67;64.04
13011;BME280;6786;57.632;11.962;2023-07-08T02:55:56;101523.19;;;20.67;64.22
13011;BME280;6786;57.632;11.962;2023-07-08T02:58:25;101525.00;;;20.67;64.40
13011;BME280;6786;57.632;11.962;2023-07-08T03:00:53;101516.94;;;20.67;64.28
13011;BME280;6786;57.632;11.962;2023-07-08T03:03:23;101521.47;;;20.66;64.47
13011;BME280;6786;57.632;11.962;2023-07-08T03:05:55;101517.81;;;20.67;64.21
13011;BME280;6786;57.632;11.962;2023-07-08T03:08:24;101522.31;;;20.67;64.05
13011;BME280;6786;57.632;11.962;2023-07-08T03:10:56;101521.47;;;20.66;64.38
13011;BME280;6786;57.632;11.962;2023-07-08T03:13:25;101521.47;;;20.66;64.14
13011;BME280;6786;57.632;11.962;2023-07-08T03:15:54;101527.81;;;20.65;64.39
13011;BME280;6786;57.632;11.962;2023-07-08T03:18:24;101523.44;;;20.64;64.41
13011;BME280;6786;57.632;11.962;2023-07-08T03:20:53;101529.53;;;20.66;64.29
13011;BME280;6786;57.632;11.962;2023-07-08T03:23:23;101521.47;;;20.66;64.32
13011;BME280;6786;57.632;11.962;2023-07-08T03:25:52;101527.81;;;20.65;64.31
13011;BME280;6786;57.632;11.962;2023-07-08T03:28:20;101518.06;;;20.64;64.30
13011;BME280;6786;57.632;11.962;2023-07-08T03:30:52;101535.88;;;20.65;64.19
13011;BME280;6786;57.632;11.962;2023-07-08T03:33:21;101529.78;;;20.63;64.42
13011;BME280;6786;57.632;11.962;2023-07-08T03:35:50;101527.09;;;20.63;64.14
13011;BME280;6786;57.632;11.962;2023-07-08T03:38:19;101524.41;;;20.63;64.19
13011;BME280;6786;57.632;11.962;2023-07-08T03:40:47;101533.44;;;20.62;64.20
13011;BME280;6786;57.632;11.962;2023-07-08T03:43:15;101537.84;;;20.63;64.27
13011;BME280;6786;57.632;11.962;2023-07-08T03:45:43;101543.22;;;20.63;64.25
13011;BME280;6786;57.632;11.962;2023-07-08T03:48:12;101503.94;;;20.40;64.32
13011;BME280;6786;57.632;11.962;2023-07-08T03:50:40;101541.38;;;20.64;64.15
13011;BME280;6786;57.632;11.962;2023-07-08T03:53:10;101544.06;;;20.64;64.14
13011;BME280;6786;57.632;11.962;2023-07-08T03:55:38;101541.25;;;20.65;64.13
13011;BME280;6786;57.632;11.962;2023-07-08T03:58:06;101545.78;;;20.65;64.28
13011;BME280;6786;57.632;11.962;2023-07-08T04:00:35;101540.28;;;20.66;64.17
13011;BME280;6786;57.632;11.962;2023-07-08T04:03:03;101542.97;;;20.66;64.04
13011;BME280;6786;57.632;11.962;2023-07-08T04:05:31;101546.38;;;20.68;64.18
13011;BME280;6786;57.632;11.962;2023-07-08T04:07:59;101545.53;;;20.68;63.98
13011;BME280;6786;57.632;11.962;2023-07-08T04:10:29;101551.88;;;20.67;64.22
13011;BME280;6786;57.632;11.962;2023-07-08T04:12:57;101560.78;;;20.67;64.15
13011;BME280;6786;57.632;11.962;2023-07-08T04:15:25;101550.03;;;20.67;64.25
13011;BME280;6786;57.632;11.962;2023-07-08T04:17:55;101560.78;;;20.67;64.04
13011;BME280;6786;57.632;11.962;2023-07-08T04:20:24;101552.00;;;20.65;64.20
13011;BME280;6786;57.632;11.962;2023-07-08T04:22:52;101552.97;;;20.64;64.12
13011;BME280;6786;57.632;11.962;2023-07-08T04:25:21;101557.34;;;20.65;64.04
13011;BME280;6786;57.632;11.962;2023-07-08T04:27:55;101557.34;;;20.65;63.99
13011;BME280;6786;57.632;11.962;2023-07-08T04:30:25;101562.72;;;20.65;64.22
13011;BME280;6786;57.632;11.962;2023-07-08T04:32:53;101573.47;;;20.65;64.25
13011;BME280;6786;57.632;11.962;2023-07-08T04:35:23;101559.34;;;20.63;64.25
13011;BME280;6786;57.632;11.962;2023-07-08T04:37:51;101564.72;;;20.63;64.33
13011;BME280;6786;57.632;11.962;2023-07-08T04:40:21;101567.28;;;20.65;64.05
13011;BME280;6786;57.632;11.962;2023-07-08T04:42:49;101573.47;;;20.65;64.04
13011;BME280;6786;57.632;11.962;2023-07-08T04:45:19;101570.78;;;20.65;64.11
13011;BME280;6786;57.632;11.962;2023-07-08T04:47:48;101571.78;;;20.64;63.99
13011;BME280;6786;57.632;11.962;2023-07-08T04:50:20;101579.84;;;20.64;64.24
13011;BME280;6786;57.632;11.962;2023-07-08T04:52:48;101581.53;;;20.65;64.33
13011;BME280;6786;57.632;11.962;2023-07-08T04:55:17;101584.22;;;20.65;64.03
13011;BME280;6786;57.632;11.962;2023-07-08T04:57:46;101577.03;;;20.66;64.01
13011;BME280;6786;57.632;11.962;2023-07-08T05:00:16;101566.41;;;20.64;64.06
13011;BME280;6786;57.632;11.962;2023-07-08T05:02:47;101581.53;;;20.65;64.02
13011;BME280;6786;57.632;11.962;2023-07-08T05:05:16;101578.84;;;20.65;64.21
13011;BME280;6786;57.632;11.962;2023-07-08T05:07:44;101582.41;;;20.66;64.11
13011;BME280;6786;57.632;11.962;2023-07-08T05:10:12;101578.72;;;20.67;64.20
13011;BME280;6786;57.632;11.962;2023-07-08T05:12:40;101583.97;;;20.68;64.24
13011;BME280;6786;57.632;11.962;2023-07-08T05:15:09;101551.53;;;20.49;64.20
13011;BME280;6786;57.632;11.962;2023-07-08T05:17:38;101572.03;;;20.61;64.13
13011;BME280;6786;57.632;11.962;2023-07-08T05:20:11;101579.72;;;20.66;64.29
13011;BME280;6786;57.632;11.962;2023-07-08T05:22:39;101578.72;;;20.67;64.28
13011;BME280;6786;57.632;11.962;2023-07-08T05:25:10;101589.59;;;20.65;64.29
13011;BME280;6786;57.632;11.962;2023-07-08T05:27:38;101582.28;;;20.67;64.08
13011;BME280;6786;57.632;11.962;2023-07-08T05:30:10;101586.66;;;20.68;64.01
13011;BME280;6786;57.632;11.962;2023-07-08T05:32:39;101581.16;;;20.70;64.05
13011;BME280;6786;57.632;11.962;2023-07-08T05:35:09;101587.41;;;20.70;64.16
13011;BME280;6786;57.632;11.962;2023-07-08T05:37:37;101587.41;;;20.70;64.18
13011;BME280;6786;57.632;11.962;2023-07-08T05:40:08;101588.25;;;20.71;64.12
13011;BME280;6786;57.632;11.962;2023-07-08T05:42:36;101594.59;;;20.70;64.25
13011;BME280;6786;57.632;11.962;2023-07-08T05:45:05;101587.41;;;20.70;64.25
13011;BME280;6786;57.632;11.962;2023-07-08T05:47:34;101590.09;;;20.70;64.07
13011;BME280;6786;57.632;11.962;2023-07-08T05:50:03;101596.44;;;20.69;64.36
13011;BME280;6786;57.632;11.962;2023-07-08T05:52:32;101584.84;;;20.69;64.46
13011;BME280;6786;57.632;11.962;2023-07-08T05:55:01;101596.44;;;20.69;64.27
13011;BME280;6786;57.632;11.962;2023-07-08T05:57:29;101601.81;;;20.69;64.57
13011;BME280;6786;57.632;11.962;2023-07-08T05:59:57;101595.59;;;20.69;64.46
13011;BME280;6786;57.632;11.962;2023-07-08T06:02:25;101598.16;;;20.70;64.27
13011;BME280;6786;57.632;11.962;2023-07-08T06:04:53;101599.97;;;20.70;64.23
13011;BME280;6786;57.632;11.962;2023-07-08T06:07:22;101601.81;;;20.69;64.37
13011;BME280;6786;57.632;11.962;2023-07-08T06:09:51;101599.13;;;20.69;64.32
13011;BME280;6786;57.632;11.962;2023-07-08T06:12:22;101584.22;;;20.65;64.48
13011;BME280;6786;57.632;11.962;2023-07-08T06:14:50;101583.97;;;20.68;64.53
13011;BME280;6786;57.632;11.962;2023-07-08T06:17:19;101600.84;;;20.70;64.54
13011;BME280;6786;57.632;11.962;2023-07-08T06:19:47;101600.84;;;20.70;64.42
13011;BME280;6786;57.632;11.962;2023-07-08T06:22:15;101594.97;;;20.65;64.61
13011;BME280;6786;57.632;11.962;2023-07-08T06:25:06;101609.63;;;20.72;64.53
13011;BME280;6786;57.632;11.962;2023-07-08T06:27:34;101606.94;;;20.72;64.37
13011;BME280;6786;57.632;11.962;2023-07-08T06:30:03;101610.59;;;20.71;64.53
13011;BME280;6786;57.632;11.962;2023-07-08T06:32:32;101615.97;;;20.71;64.39
13011;BME280;6786;57.632;11.962;2023-07-08T06:35:00;101615.97;;;20.71;64.44
13011;BME280;6786;57.632;11.962;2023-07-08T06:37:28;101615.97;;;20.71;64.41
13011;BME280;6786;57.632;11.962;2023-07-08T06:39:56;101595.22;;;20.62;64.58
13011;BME280;6786;57.632;11.962;2023-07-08T06:42:26;101623.06;;;20.72;64.66
13011;BME280;6786;57.632;11.962;2023-07-08T06:44:59;101624.75;;;20.73;64.42
13011;BME280;6786;57.632;11.962;2023-07-08T06:47:27;101628.44;;;20.72;64.65
13011;BME280;6786;57.632;11.962;2023-07-08T06:49:56;101628.44;;;20.72;64.42
13011;BME280;6786;57.632;11.962;2023-07-08T06:52:25;101623.06;;;20.72;64.62
13011;BME280;6786;57.632;11.962;2023-07-08T06:54:53;101620.50;;;20.71;64.30
13011;BME280;6786;57.632;11.962;2023-07-08T06:57:21;101621.34;;;20.71;64.44
13011;BME280;6786;57.632;11.962;2023-07-08T06:59:51;101616.22;;;20.68;64.38
13011;BME280;6786;57.632;11.962;2023-07-08T07:02:19;101617.94;;;20.69;64.29
13011;BME280;6786;57.632;11.962;2023-07-08T07:04:47;101616.22;;;20.68;64.52
13011;BME280;6786;57.632;11.962;2023-07-08T07:07:16;101609.38;;;20.64;64.30
13011;BME280;6786;57.632;11.962;2023-07-08T07:09:44;101621.34;;;20.71;64.33
13011;BME280;6786;57.632;11.962;2023-07-08T07:12:12;101621.34;;;20.71;64.52
13011;BME280;6786;57.632;11.962;2023-07-08T07:14:40;101623.06;;;20.72;64.32
13011;BME280;6786;57.632;11.962;2023-07-08T07:17:12;101624.03;;;20.71;64.32
13011;BME280;6786;57.632;11.962;2023-07-08T07:19:41;101622.19;;;20.72;64.40
13011;BME280;6786;57.632;11.962;2023-07-08T07:22:09;101621.34;;;20.71;64.55
13011;BME280;6786;57.632;11.962;2023-07-08T07:24:37;101615.13;;;20.71;64.45
13011;BME280;6786;57.632;11.962;2023-07-08T07:27:06;101613.16;;;20.73;64.54
13011;BME280;6786;57.632;11.962;2023-07-08T07:29:45;101612.56;;;20.69;64.60
13011;BME280;6786;57.632;11.962;2023-07-08T07:32:16;101622.19;;;20.72;64.53
13011;BME280;6786;57.632;11.962;2023-07-08T07:34:46;101621.34;;;20.71;64.29
13011;BME280;6786;57.632;11.962;2023-07-08T07:37:16;101621.34;;;20.71;64.36
13011;BME280;6786;57.632;11.962;2023-07-08T07:39:45;101623.06;;;20.72;64.44
13011;BME280;6786;57.632;11.962;2023-07-08T07:42:14;101623.91;;;20.73;64.42
13011;BME280;6786;57.632;11.962;2023-07-08T07:44:43;101619.38;;;20.73;64.43
13011;BME280;6786;57.632;11.962;2023-07-08T07:47:12;101618.53;;;20.73;64.46
13011;BME280;6786;57.632;11.962;2023-07-08T07:49:42;101619.63;;;20.70;64.20
13011;BME280;6786;57.632;11.962;2023-07-08T07:52:10;101587.19;;;20.51;64.37
13011;BME280;6786;57.632;11.962;2023-07-08T07:54:38;101617.69;;;20.72;64.44
13011;BME280;6786;57.632;11.962;2023-07-08T07:57:07;101612.31;;;20.72;64.22
13011;BME280;6786;57.632;11.962;2023-07-08T07:59:35;101623.06;;;20.72;64.47
13011;BME280;6786;57.632;11.962;2023-07-08T08:02:04;101623.91;;;20.73;64.21
13011;BME280;6786;57.632;11.962;2023-07-08T08:04:32;101610.00;;;20.68;64.25
13011;BME280;6786;57.632;11.962;2023-07-08T08:07:02;101617.81;;;20.71;64.34
13011;BME280;6786;57.632;11.962;2023-07-08T08:09:31;101622.06;;;20.73;64.24
13011;BME280;6786;57.632;11.962;2023-07-08T08:12:01;101605.38;;;20.59;64.05
13011;BME280;6786;57.632;11.962;2023-07-08T08:14:30;101632.81;;;20.73;64.14
13011;BME280;6786;57.632;11.962;2023-07-08T08:16:58;101635.50;;;20.73;64.22
13011;BME280;6786;57.632;11.962;2023-07-08T08:19:26;101630.13;;;20.73;64.41
13011;BME280;6786;57.632;11.962;2023-07-08T08:21:54;101630.13;;;20.73;64.07
13011;BME280;6786;57.632;11.962;2023-07-08T08:24:24;101626.59;;;20.73;64.14
13011;BME280;6786;57.632;11.962;2023-07-08T08:26:54;101628.44;;;20.72;64.23
13011;BME280;6786;57.632;11.962;2023-07-08T08:29:22;101633.81;;;20.72;64.21
13011;BME280;6786;57.632;11.962;2023-07-08T08:31:50;101639.19;;;20.72;64.09
13011;BME280;6786;57.632;11.962;2023-07-08T08:34:18;101629.41;;;20.71;64.42
13011;BME280;6786;57.632;11.962;2023-07-08T08:36:47;101635.50;;;20.73;64.26
13011;BME280;6786;57.632;11.962;2023-07-08T08:39:15;101629.28;;;20.73;64.20
13011;BME280;6786;57.632;11.962;2023-07-08T08:41:44;101634.06;;;20.69;64.03
13011;BME280;6786;57.632;11.962;2023-07-08T08:44:16;101636.38;;;20.74;64.34
13011;BME280;6786;57.632;11.962;2023-07-08T08:46:51;101647.94;;;20.74;64.22
13011;BME280;6786;57.632;11.962;2023-07-08T08:49:25;101641.13;;;20.70;64.09
13011;BME280;6786;57.632;11.962;2023-07-08T08:51:55;101632.94;;;20.72;64.41
13011;BME280;6786;57.632;11.962;2023-07-08T08:54:26;101639.19;;;20.72;64.18
13011;BME280;6786;57.632;11.962;2023-07-08T08:57:00;101642.81;;;20.71;64.24
13011;BME280;6786;57.632;11.962;2023-07-08T08:59:38;101642.00;;;20.71;64.29
13011;BME280;6786;57.632;11.962;2023-07-08T09:02:28;101642.81;;;20.71;64.14
13011;BME280;6786;57.632;11.962;2023-07-08T09:05:03;101640.00;;;20.73;64.36
13011;BME280;6786;57.632;11.962;2023-07-08T09:07:41;101657.00;;;20.73;64.13
13011;BME280;6786;57.632;11.962;2023-07-08T09:10:19;101651.63;;;20.73;64.16
13011;BME280;6786;57.632;11.962;2023-07-08T09:12:53;101655.31;;;20.72;64.15
13011;BME280;6786;57.632;11.962;2023-07-08T09:15:26;101646.50;;;20.70;64.38
13011;BME280;6786;57.632;11.962;2023-07-08T09:17:57;101615.03;;;20.50;64.31
13011;BME280;6786;57.632;11.962;2023-07-08T09:20:29;101643.69;;;20.72;64.27
13011;BME280;6786;57.632;11.962;2023-07-08T09:23:00;101649.94;;;20.72;64.37
13011;BME280;6786;57.632;11.962;2023-07-08T09:25:32;101656.25;;;20.71;64.42
13011;BME280;6786;57.632;11.962;2023-07-08T09:28:04;101655.31;;;20.72;64.21
13011;BME280;6786;57.632;11.962;2023-07-08T09:30:32;101658.69;;;20.74;64.38
13011;BME280;6786;57.632;11.962;2023-07-08T09:33:03;101655.31;;;20.72;64.26
13011;BME280;6786;57.632;11.962;2023-07-08T09:35:40;101651.63;;;20.73;64.12
13011;BME280;6786;57.632;11.962;2023-07-08T09:38:13;101656.00;;;20.74;64.38
13011;BME280;6786;57.632;11.962;2023-07-08T09:40:47;101647.25;;;20.72;64.13
13011;BME280;6786;57.632;11.962;2023-07-08T09:43:27;101658.69;;;20.74;64.24
13011;BME280;6786;57.632;11.962;2023-07-08T09:45:58;101658.00;;;20.72;64.29
13011;BME280;6786;57.632;11.962;2023-07-08T09:48:28;101664.06;;;20.74;64.11
13011;BME280;6786;57.632;11.962;2023-07-08T09:50:58;101652.13;;;20.67;64.39
13011;BME280;6786;57.632;11.962;2023-07-08T09:53:27;101662.38;;;20.73;64.28
13011;BME280;6786;57.632;11.962;2023-07-08T09:55:57;101666.75;;;20.74;64.29
13011;BME280;6786;57.632;11.962;2023-07-08T09:58:30;101648.44;;;20.68;64.12
13011;BME280;6786;57.632;11.962;2023-07-08T10:01:05;101653.31;;;20.74;64.27
13011;BME280;6786;57.632;11.962;2023-07-08T10:03:36;101658.69;;;20.74;64.28
13011;BME280;6786;57.632;11.962;2023-07-08T10:06:17;101659.56;;;20.75;64.08
13011;BME280;6786;57.632;11.962;2023-07-08T10:08:46;101637.72;;;20.57;64.18
13011;BME280;6786;57.632;11.962;2023-07-08T10:11:22;101660.69;;;20.72;64.27
13011;BME280;6786;57.632;11.962;2023-07-08T10:13:57;101666.06;;;20.72;64.20
13011;BME280;6786;57.632;11.962;2023-07-08T10:16:41;101628.94;;;20.55;63.98
13011;BME280;6786;57.632;11.962;2023-07-08T10:19:13;101661.63;;;20.71;64.38
13011;BME280;6786;57.632;11.962;2023-07-08T10:21:48;101657.25;;;20.70;64.40
13011;BME280;6786;57.632;11.962;2023-07-08T10:24:29;101666.06;;;20.72;64.43
13011;BME280;6786;57.632;11.962;2023-07-08T10:27:06;101658.94;;;20.71;64.44
13011;BME280;6786;57.632;11.962;2023-07-08T10:29:41;101664.31;;;20.71;64.25
13011;BME280;6786;57.632;11.962;2023-07-08T10:32:24;101660.69;;;20.72;64.32
13011;BME280;6786;57.632;11.962;2023-07-08T10:35:01;101655.31;;;20.72;64.15
13011;BME280;6786;57.632;11.962;2023-07-08T10:37:41;101666.06;;;20.72;64.16
13011;BME280;6786;57.632;11.962;2023-07-08T10:40:21;101654.44;;;20.72;64.50
13011;BME280;6786;57.632;11.962;2023-07-08T10:43:11;101676.78;;;20.72;64.22
13011;BME280;6786;57.632;11.962;2023-07-08T10:45:49;101661.63;;;20.71;64.25
13011;BME280;6786;57.632;11.962;2023-07-08T10:48:32;101664.31;;;20.71;64.54
13011;BME280;6786;57.632;11.962;2023-07-08T10:51:13;101675.06;;;20.71;64.30
13011;BME280;6786;57.632;11.962;2023-07-08T10:53:57;101664.81;;;20.65;64.33
13011;BME280;6786;57.632;11.962;2023-07-08T10:56:33;101662.63;;;20.70;64.27
13011;BME280;6786;57.632;11.962;2023-07-08T11:02:13;101676.91;;;20.71;64.37
13011;BME280;6786;57.632;11.962;2023-07-08T11:04:52;101658.72;;;20.63;64.25
13011;BME280;6786;57.632;11.962;2023-07-08T11:07:32;101678.75;;;20.70;64.37
13011;BME280;6786;57.632;11.962;2023-07-08T11:10:05;101664.56;;;20.68;64.20
13011;BME280;6786;57.632;11.962;2023-07-08T11:12:39;101677.03;;;20.69;64.08
13011;BME280;6786;57.632;11.962;2023-07-08T11:15:17;101664.31;;;20.71;64.06
13011;BME280;6786;57.632;11.962;2023-07-08T11:17:55;101663.38;;;20.72;64.11
13011;BME280;6786;57.632;11.962;2023-07-08T11:20:37;101675.06;;;20.71;64.11
13011;BME280;6786;57.632;11.962;2023-07-08T11:23:14;101675.06;;;20.71;63.99
13011;BME280;6786;57.632;11.962;2023-07-08T11:25:47;101686.69;;;20.72;64.35
13011;BME280;6786;57.632;11.962;2023-07-08T11:28:19;101670.19;;;20.65;64.28
13011;BME280;6786;57.632;11.962;2023-07-08T11:30:50;101664.81;;;20.65;64.05
13011;BME280;6786;57.632;11.962;2023-07-08T11:33:24;101686.56;;;20.73;64.17
13011;BME280;6786;57.632;11.962;2023-07-08T11:35:53;101676.78;;;20.72;64.11
13011;BME280;6786;57.632;11.962;2023-07-08T11:38:25;101675.06;;;20.71;64.10
13011;BME280;6786;57.632;11.962;2023-07-08T11:40:56;101675.06;;;20.71;64.39
13011;BME280;6786;57.632;11.962;2023-07-08T11:43:27;101663.50;;;20.71;64.11
13011;BME280;6786;57.632;11.962;2023-07-08T11:46:05;101664.31;;;20.71;64.14
13011;BME280;6786;57.632;11.962;2023-07-08T11:48:39;101660.69;;;20.72;64.06
13011;BME280;6786;57.632;11.962;2023-07-08T11:51:10;101663.38;;;20.72;64.11
13011;BME280;6786;57.632;11.962;2023-07-08T11:53:47;101660.69;;;20.72;64.41
13011;BME280;6786;57.632;11.962;2023-07-08T11:56:22;101665.19;;;20.72;64.09
13011;BME280;6786;57.632;11.962;2023-07-08T11:58:57;101667.75;;;20.73;64.05
13011;BME280;6786;57.632;11.962;2023-07-08T12:01:28;101667.75;;;20.73;64.16
13011;BME280;6786;57.632;11.962;2023-07-08T12:04:16;101675.81;;;20.73;63.82
13011;BME280;6786;57.632;11.962;2023-07-08T12:06:48;101669.44;;;20.74;64.14
13011;BME280;6786;57.632;11.962;2023-07-08T12:09:23;101668.63;;;20.74;63.94
13011;BME280;6786;57.632;11.962;2023-07-08T12:11:59;101668.75;;;20.72;64.22
13011;BME280;6786;57.632;11.962;2023-07-08T12:14:28;101663.50;;;20.71;64.11
13011;BME280;6786;57.632;11.962;2023-07-08T12:16:57;101666.06;;;20.72;64.25
13011;BME280;6786;57.632;11.962;2023-07-08T12:19:28;101669.44;;;20.74;63.90
13011;BME280;6786;57.632;11.962;2023-07-08T12:22:01;101663.13;;;20.64;64.03
13011;BME280;6786;57.632;11.962;2023-07-08T12:24:30;101666.06;;;20.72;63.95
13011;BME280;6786;57.632;11.962;2023-07-08T12:26:58;101662.63;;;20.70;64.06
13011;BME280;6786;57.632;11.962;2023-07-08T12:29:26;101681.06;;;20.75;63.96
13011;BME280;6786;57.632;11.962;2023-07-08T12:31:55;101672.00;;;20.76;64.14
13011;BME280;6786;57.632;11.962;2023-07-08T12:34:26;101663.13;;;20.75;63.80
13011;BME280;6786;57.632;11.962;2023-07-08T12:36:54;101665.81;;;20.75;63.78
13011;BME280;6786;57.632;11.962;2023-07-08T12:39:23;101667.75;;;20.73;63.93
13011;BME280;6786;57.632;11.962;2023-07-08T12:41:51;101677.50;;;20.74;63.76
13011;BME280;6786;57.632;11.962;2023-07-08T12:44:21;101663.25;;;20.74;64.03
13011;BME280;6786;57.632;11.962;2023-07-08T12:46:52;101662.13;;;20.76;64.01
13011;BME280;6786;57.632;11.962;2023-07-08T12:49:21;101661.38;;;20.74;63.97
13011;BME280;6786;57.632;11.962;2023-07-08T12:51:55;101654.19;;;20.75;64.03
13011;BME280;6786;57.632;11.962;2023-07-08T12:54:23;101653.31;;;20.74;63.78
13011;BME280;6786;57.632;11.962;2023-07-08T12:56:54;101578.03;;;20.32;63.79
13011;BME280;6786;57.632;11.962;2023-07-08T12:59:23;101641.75;;;20.74;63.81
13011;BME280;6786;57.632;11.962;2023-07-08T13:01:52;101649.69;;;20.75;63.92
13011;BME280;6786;57.632;11.962;2023-07-08T13:04:20;101640.88;;;20.73;63.94
13011;BME280;6786;57.632;11.962;2023-07-08T13:06:49;101646.38;;;20.72;63.64
13011;BME280;6786;57.632;11.962;2023-07-08T13:09:34;101651.63;;;20.73;63.60
13011;BME280;6786;57.632;11.962;2023-07-08T13:12:15;101646.25;;;20.73;63.74